sensor_id;sensor_type;location;lat;lon;timestamp;P1;durP1;ratioP1;P2;durP2;ratioP2
5620;SDS011;2832;50.864;12.186;2022-11-15T00:01:08;1.00;;;1.00;;
5620;SDS011;2832;50.864;12.186;2022-11-15T00:03:40;1.00;;;1.00;;
5620;SDS011;2832;50.864;12.186;2022-11-15T00:06:08;1.00;;;1.00;;
5620;SDS011;2832;50.864;12.186;2022-11-15T00:08:35;1.00;;;1.00;;
5620;SDS011;2832;50.864;12.186;2022-11-15T00:11:03;1.00;;;1.00;;
5620;SDS011;2832;50.864;12.186;2022-11-15T00:13:31;1.00;;;1.00;;
5620;SDS011;2832;50.864;12.186;2022-11-15T00:15:59;1.00;;;1.00;;
5620;SDS011;2832;50.864;12.186;2022-11-15T00:18:30;1.10;;;1.10;;
5620;SDS011;2832;50.864;12.186;2022-11-15T00:21:02;1.10;;;1.10;;
5620;SDS011;2832;50.864;12.186;2022-11-15T00:23:32;1.00;;;1.00;;
5620;SDS011;2832;50.864;12.186;2022-11-15T00:26:00;1.10;;;1.10;;
5620;SDS011;2832;50.864;12.186;2022-11-15T00:28:28;1.00;;;1.00;;
5620;SDS011;2832;50.864;12.186;2022-11-15T00:30:59;1.10;;;1.10;;
5620;SDS011;2832;50.864;12.186;2022-11-15T00:33:27;1.00;;;1.00;;
5620;SDS011;2832;50.864;12.186;2022-11-15T00:36:01;1.10;;;1.10;;
5620;SDS011;2832;50.864;12.186;2022-11-15T00:38:30;1.10;;;1.10;;
5620;SDS011;2832;50.864;12.186;2022-11-15T00:41:00;1.00;;;1.00;;
5620;SDS011;2832;50.864;12.186;2022-11-15T00:43:29;1.10;;;1.10;;
5620;SDS011;2832;50.864;12.186;2022-11-15T00:46:01;1.00;;;1.00;;
5620;SDS011;2832;50.864;12.186;2022-11-15T00:48:31;1.10;;;1.10;;
5620;SDS011;2832;50.864;12.186;2022-11-15T00:50:59;1.00;;;1.00;;
5620;SDS011;2832;50.864;12.186;2022-11-15T00:53:27;1.00;;;1.00;;
5620;SDS011;2832;50.864;12.186;2022-11-15T00:55:55;1.10;;;1.10;;
5620;SDS011;2832;50.864;12.186;2022-11-15T00:58:22;1.00;;;1.00;;
5620;SDS011;2832;50.864;12.186;2022-11-15T01:00:51;1.00;;;1.00;;
5620;SDS011;2832;50.864;12.186;2022-11-15T01:03:20;1.00;;;1.00;;
5620;SDS011;2832;50.864;12.186;2022-11-15T01:05:49;1.00;;;1.00;;
5620;SDS011;2832;50.864;12.186;2022-11-15T01:08:17;1.00;;;1.00;;
5620;SDS011;2832;50.864;12.186;2022-11-15T01:10:45;1.00;;;1.00;;
5620;SDS011;2832;50.864;12.186;2022-11-15T01:13:12;1.03;;;1.03;;
5620;SDS011;2832;50.864;12.186;2022-11-15T01:15:40;1.00;;;1.00;;
5620;SDS011;2832;50.864;12.186;2022-11-15T01:18:08;1.00;;;1.00;;
5620;SDS011;2832;50.864;12.186;2022-11-15T01:20:39;1.00;;;1.00;;
5620;SDS011;2832;50.864;12.186;2022-11-15T01:23:09;1.00;;;1.00;;
5620;SDS011;2832;50.864;12.186;2022-11-15T01:25:37;1.00;;;1.00;;
5620;SDS011;2832;50.864;12.186;2022-11-15T01:28:06;1.00;;;1.00;;
5620;SDS011;2832;50.864;12.186;2022-11-15T01:30:35;1.00;;;1.00;;
5620;SDS011;2832;50.864;12.186;2022-11-15T01:33:03;1.00;;;1.00;;
5620;SDS011;2832;50.864;12.186;2022-11-15T01:35:30;1.00;;;1.00;;
5620;SDS011;2832;50.864;12.186;2022-11-15T01:37:58;1.10;;;1.10;;
5620;SDS011;2832;50.864;12.186;2022-11-15T01:40:27;1.00;;;1.00;;
5620;SDS011;2832;50.864;12.186;2022-11-15T01:42:55;1.00;;;1.00;;
5620;SDS011;2832;50.864;12.186;2022-11-15T01:45:23;1.00;;;1.00;;
5620;SDS011;2832;50.864;12.186;2022-11-15T01:47:51;1.10;;;1.10;;
5620;SDS011;2832;50.864;12.186;2022-11-15T01:50:22;1.00;;;1.00;;
5620;SDS011;2832;50.864;12.186;2022-11-15T01:52:53;1.00;;;1.00;;
5620;SDS011;2832;50.864;12.186;2022-11-15T01:55:22;1.00;;;1.00;;
5620;SDS011;2832;50.864;12.186;2022-11-15T01:57:54;1.10;;;1.10;;
5620;SDS011;2832;50.864;12.186;2022-11-15T02:00:26;1.00;;;1.00;;
5620;SDS011;2832;50.864;12.186;2022-11-15T02:02:54;1.10;;;1.10;;
5620;SDS011;2832;50.864;12.186;2022-11-15T02:05:22;1.00;;;1.00;;
5620;SDS011;2832;50.864;12.186;2022-11-15T02:07:50;1.10;;;1.10;;
5620;SDS011;2832;50.864;12.186;2022-11-15T02:10:19;1.10;;;1.10;;
5620;SDS011;2832;50.864;12.186;2022-11-15T02:12:48;1.00;;;1.00;;
5620;SDS011;2832;50.864;12.186;2022-11-15T02:15:19;1.00;;;1.00;;
5620;SDS011;2832;50.864;12.186;2022-11-15T02:20:42;1.00;;;1.00;;
5620;SDS011;2832;50.864;12.186;2022-11-15T02:26:34;1.00;;;1.00;;
5620;SDS011;2832;50.864;12.186;2022-11-15T02:29:31;1.00;;;1.00;;
5620;SDS011;2832;50.864;12.186;2022-11-15T02:32:13;1.00;;;1.00;;
5620;SDS011;2832;50.864;12.186;2022-11-15T02:34:48;1.00;;;1.00;;
5620;SDS011;2832;50.864;12.186;2022-11-15T02:37:23;1.07;;;1.07;;
5620;SDS011;2832;50.864;12.186;2022-11-15T02:40:02;1.00;;;1.00;;
5620;SDS011;2832;50.864;12.186;2022-11-15T02:42:39;1.00;;;1.00;;
5620;SDS011;2832;50.864;12.186;2022-11-15T02:45:33;1.00;;;1.00;;
5620;SDS011;2832;50.864;12.186;2022-11-15T02:48:07;1.00;;;1.00;;
5620;SDS011;2832;50.864;12.186;2022-11-15T02:50:38;1.00;;;1.00;;
5620;SDS011;2832;50.864;12.186;2022-11-15T02:53:05;1.00;;;1.00;;
5620;SDS011;2832;50.864;12.186;2022-11-15T02:55:34;1.00;;;1.00;;
5620;SDS011;2832;50.864;12.186;2022-11-15T02:58:16;0.90;;;0.90;;
5620;SDS011;2832;50.864;12.186;2022-11-15T03:01:04;1.00;;;1.00;;
5620;SDS011;2832;50.864;12.186;2022-11-15T03:03:44;1.00;;;1.00;;
5620;SDS011;2832;50.864;12.186;2022-11-15T03:06:20;1.00;;;1.00;;
5620;SDS011;2832;50.864;12.186;2022-11-15T03:09:02;1.00;;;1.00;;
5620;SDS011;2832;50.864;12.186;2022-11-15T03:11:36;1.00;;;1.00;;
5620;SDS011;2832;50.864;12.186;2022-11-15T03:14:10;1.00;;;1.00;;
5620;SDS011;2832;50.864;12.186;2022-11-15T03:16:47;1.00;;;1.00;;
5620;SDS011;2832;50.864;12.186;2022-11-15T03:19:26;1.10;;;1.10;;
5620;SDS011;2832;50.864;12.186;2022-11-15T03:21:59;1.10;;;1.10;;
5620;SDS011;2832;50.864;12.186;2022-11-15T03:24:31;1.00;;;1.00;;
5620;SDS011;2832;50.864;12.186;2022-11-15T03:27:01;1.00;;;1.00;;
5620;SDS011;2832;50.864;12.186;2022-11-15T03:29:33;1.07;;;1.07;;
5620;SDS011;2832;50.864;12.186;2022-11-15T03:32:06;1.00;;;1.00;;
5620;SDS011;2832;50.864;12.186;2022-11-15T03:34:49;1.00;;;1.00;;
5620;SDS011;2832;50.864;12.186;2022-11-15T03:37:20;1.00;;;1.00;;
5620;SDS011;2832;50.864;12.186;2022-11-15T03:39:52;1.00;;;1.00;;
5620;SDS011;2832;50.864;12.186;2022-11-15T03:42:21;1.07;;;1.07;;
5620;SDS011;2832;50.864;12.186;2022-11-15T03:44:55;1.00;;;1.00;;
5620;SDS011;2832;50.864;12.186;2022-11-15T03:47:32;1.00;;;1.00;;
5620;SDS011;2832;50.864;12.186;2022-11-15T03:50:06;1.10;;;1.10;;
5620;SDS011;2832;50.864;12.186;2022-11-15T03:52:38;1.00;;;1.00;;
5620;SDS011;2832;50.864;12.186;2022-11-15T03:55:09;1.00;;;1.00;;
5620;SDS011;2832;50.864;12.186;2022-11-15T03:57:39;1.00;;;1.00;;
5620;SDS011;2832;50.864;12.186;2022-11-15T04:00:19;1.10;;;1.10;;
5620;SDS011;2832;50.864;12.186;2022-11-15T04:02:47;1.00;;;1.00;;
5620;SDS011;2832;50.864;12.186;2022-11-15T04:05:16;1.00;;;1.00;;
5620;SDS011;2832;50.864;12.186;2022-11-15T04:07:44;1.10;;;1.10;;
5620;SDS011;2832;50.864;12.186;2022-11-15T04:10:12;1.00;;;1.00;;
5620;SDS011;2832;50.864;12.186;2022-11-15T04:12:41;1.00;;;1.00;;
5620;SDS011;2832;50.864;12.186;2022-11-15T04:15:12;1.07;;;1.07;;
5620;SDS011;2832;50.864;12.186;2022-11-15T04:17:41;1.03;;;1.03;;
5620;SDS011;2832;50.864;12.186;2022-11-15T04:20:12;1.03;;;1.03;;
5620;SDS011;2832;50.864;12.186;2022-11-15T04:23:04;1.00;;;1.00;;
5620;SDS011;2832;50.864;12.186;2022-11-15T04:25:51;1.00;;;1.00;;
5620;SDS011;2832;50.864;12.186;2022-11-15T04:28:20;1.00;;;1.00;;
5620;SDS011;2832;50.864;12.186;2022-11-15T04:30:48;1.10;;;1.10;;
5620;SDS011;2832;50.864;12.186;2022-11-15T04:33:16;1.10;;;1.10;;
5620;SDS011;2832;50.864;12.186;2022-11-15T04:35:44;1.00;;;1.00;;
5620;SDS011;2832;50.864;12.186;2022-11-15T04:38:34;1.17;;;1.17;;
5620;SDS011;2832;50.864;12.186;2022-11-15T04:41:02;1.00;;;1.00;;
5620;SDS011;2832;50.864;12.186;2022-11-15T04:43:30;1.00;;;1.00;;
5620;SDS011;2832;50.864;12.186;2022-11-15T04:45:57;1.00;;;1.00;;
5620;SDS011;2832;50.864;12.186;2022-11-15T04:48:25;1.10;;;1.10;;
5620;SDS011;2832;50.864;12.186;2022-11-15T04:50:53;1.10;;;1.10;;
5620;SDS011;2832;50.864;12.186;2022-11-15T04:53:20;1.00;;;1.00;;
5620;SDS011;2832;50.864;12.186;2022-11-15T04:55:49;1.00;;;1.00;;
5620;SDS011;2832;50.864;12.186;2022-11-15T04:58:17;1.00;;;1.00;;
5620;SDS011;2832;50.864;12.186;2022-11-15T05:00:45;1.07;;;1.07;;
5620;SDS011;2832;50.864;12.186;2022-11-15T05:03:13;1.00;;;1.00;;
5620;SDS011;2832;50.864;12.186;2022-11-15T05:05:58;1.00;;;1.00;;
5620;SDS011;2832;50.864;12.186;2022-11-15T05:08:26;1.00;;;1.00;;
5620;SDS011;2832;50.864;12.186;2022-11-15T05:10:55;1.00;;;1.00;;
5620;SDS011;2832;50.864;12.186;2022-11-15T05:13:23;1.00;;;1.00;;
5620;SDS011;2832;50.864;12.186;2022-11-15T05:15:51;1.00;;;1.00;;
5620;SDS011;2832;50.864;12.186;2022-11-15T05:18:18;1.00;;;1.00;;
5620;SDS011;2832;50.864;12.186;2022-11-15T05:20:46;1.00;;;1.00;;
5620;SDS011;2832;50.864;12.186;2022-11-15T05:23:14;1.10;;;1.10;;
5620;SDS011;2832;50.864;12.186;2022-11-15T05:25:42;1.10;;;1.10;;
5620;SDS011;2832;50.864;12.186;2022-11-15T05:28:11;1.00;;;1.00;;
5620;SDS011;2832;50.864;12.186;2022-11-15T05:30:39;1.00;;;1.00;;
5620;SDS011;2832;50.864;12.186;2022-11-15T05:33:07;1.00;;;1.00;;
5620;SDS011;2832;50.864;12.186;2022-11-15T05:35:37;1.00;;;1.00;;
5620;SDS011;2832;50.864;12.186;2022-11-15T05:38:08;1.07;;;1.07;;
5620;SDS011;2832;50.864;12.186;2022-11-15T05:40:36;1.00;;;1.00;;
5620;SDS011;2832;50.864;12.186;2022-11-15T05:43:04;1.00;;;1.00;;
5620;SDS011;2832;50.864;12.186;2022-11-15T05:45:34;1.03;;;1.03;;
5620;SDS011;2832;50.864;12.186;2022-11-15T05:48:04;1.00;;;1.00;;
5620;SDS011;2832;50.864;12.186;2022-11-15T05:50:35;1.10;;;1.10;;
5620;SDS011;2832;50.864;12.186;2022-11-15T05:53:05;1.00;;;1.00;;
5620;SDS011;2832;50.864;12.186;2022-11-15T05:55:33;1.00;;;1.00;;
5620;SDS011;2832;50.864;12.186;2022-11-15T05:58:01;1.00;;;1.00;;
5620;SDS011;2832;50.864;12.186;2022-11-15T06:00:28;1.00;;;1.00;;
5620;SDS011;2832;50.864;12.186;2022-11-15T06:02:57;1.00;;;1.00;;
5620;SDS011;2832;50.864;12.186;2022-11-15T06:05:25;1.00;;;1.00;;
5620;SDS011;2832;50.864;12.186;2022-11-15T06:07:56;1.10;;;1.10;;
5620;SDS011;2832;50.864;12.186;2022-11-15T06:10:24;1.10;;;1.10;;
5620;SDS011;2832;50.864;12.186;2022-11-15T06:12:56;1.10;;;1.10;;
5620;SDS011;2832;50.864;12.186;2022-11-15T06:15:27;1.10;;;1.10;;
5620;SDS011;2832;50.864;12.186;2022-11-15T06:17:56;1.00;;;1.00;;
5620;SDS011;2832;50.864;12.186;2022-11-15T06:20:25;1.00;;;1.00;;
5620;SDS011;2832;50.864;12.186;2022-11-15T06:22:56;1.00;;;1.00;;
5620;SDS011;2832;50.864;12.186;2022-11-15T06:25:25;1.00;;;1.00;;
5620;SDS011;2832;50.864;12.186;2022-11-15T06:27:52;1.00;;;1.00;;
5620;SDS011;2832;50.864;12.186;2022-11-15T06:30:22;1.00;;;1.00;;
5620;SDS011;2832;50.864;12.186;2022-11-15T06:32:50;1.10;;;1.10;;
5620;SDS011;2832;50.864;12.186;2022-11-15T06:35:19;1.00;;;1.00;;
5620;SDS011;2832;50.864;12.186;2022-11-15T06:37:48;1.00;;;1.00;;
5620;SDS011;2832;50.864;12.186;2022-11-15T06:40:17;1.10;;;1.10;;
5620;SDS011;2832;50.864;12.186;2022-11-15T06:42:45;1.00;;;1.00;;
5620;SDS011;2832;50.864;12.186;2022-11-15T06:45:13;1.03;;;1.03;;
5620;SDS011;2832;50.864;12.186;2022-11-15T06:47:52;1.00;;;1.00;;
5620;SDS011;2832;50.864;12.186;2022-11-15T06:50:21;1.00;;;1.00;;
5620;SDS011;2832;50.864;12.186;2022-11-15T06:52:49;1.10;;;1.10;;
5620;SDS011;2832;50.864;12.186;2022-11-15T06:55:17;1.10;;;1.10;;
5620;SDS011;2832;50.864;12.186;2022-11-15T06:57:48;1.00;;;1.00;;
5620;SDS011;2832;50.864;12.186;2022-11-15T07:00:17;1.00;;;1.00;;
5620;SDS011;2832;50.864;12.186;2022-11-15T07:02:46;0.97;;;0.97;;
5620;SDS011;2832;50.864;12.186;2022-11-15T07:05:16;1.00;;;1.00;;
5620;SDS011;2832;50.864;12.186;2022-11-15T07:07:51;1.10;;;1.10;;
5620;SDS011;2832;50.864;12.186;2022-11-15T07:10:20;1.00;;;1.00;;
5620;SDS011;2832;50.864;12.186;2022-11-15T07:12:50;1.00;;;1.00;;
5620;SDS011;2832;50.864;12.186;2022-11-15T07:15:18;1.00;;;1.00;;
5620;SDS011;2832;50.864;12.186;2022-11-15T07:17:47;1.00;;;1.00;;
5620;SDS011;2832;50.864;12.186;2022-11-15T07:20:16;1.00;;;1.00;;
5620;SDS011;2832;50.864;12.186;2022-11-15T07:22:44;1.07;;;1.07;;
5620;SDS011;2832;50.864;12.186;2022-11-15T07:25:14;1.00;;;1.00;;
5620;SDS011;2832;50.864;12.186;2022-11-15T07:27:41;1.00;;;1.00;;
5620;SDS011;2832;50.864;12.186;2022-11-15T07:30:10;1.10;;;1.10;;
5620;SDS011;2832;50.864;12.186;2022-11-15T07:32:39;1.00;;;1.00;;
5620;SDS011;2832;50.864;12.186;2022-11-15T07:35:08;1.00;;;1.00;;
5620;SDS011;2832;50.864;12.186;2022-11-15T07:37:38;1.00;;;1.00;;
5620;SDS011;2832;50.864;12.186;2022-11-15T07:40:06;1.00;;;1.00;;
5620;SDS011;2832;50.864;12.186;2022-11-15T07:42:37;1.00;;;1.00;;
5620;SDS011;2832;50.864;12.186;2022-11-15T07:45:19;1.00;;;1.00;;
5620;SDS011;2832;50.864;12.186;2022-11-15T07:47:49;1.00;;;1.00;;
5620;SDS011;2832;50.864;12.186;2022-11-15T07:50:17;1.00;;;1.00;;
5620;SDS011;2832;50.864;12.186;2022-11-15T07:52:45;1.00;;;1.00;;
5620;SDS011;2832;50.864;12.186;2022-11-15T07:55:13;1.00;;;1.00;;
5620;SDS011;2832;50.864;12.186;2022-11-15T07:57:42;1.00;;;1.00;;
5620;SDS011;2832;50.864;12.186;2022-11-15T08:00:11;1.10;;;1.10;;
5620;SDS011;2832;50.864;12.186;2022-11-15T08:02:41;1.00;;;1.00;;
5620;SDS011;2832;50.864;12.186;2022-11-15T08:05:09;1.00;;;1.00;;
5620;SDS011;2832;50.864;12.186;2022-11-15T08:07:39;1.00;;;1.00;;
5620;SDS011;2832;50.864;12.186;2022-11-15T08:10:07;1.00;;;1.00;;
5620;SDS011;2832;50.864;12.186;2022-11-15T08:12:37;1.00;;;1.00;;
5620;SDS011;2832;50.864;12.186;2022-11-15T08:15:06;1.00;;;1.00;;
5620;SDS011;2832;50.864;12.186;2022-11-15T08:17:35;1.00;;;1.00;;
5620;SDS011;2832;50.864;12.186;2022-11-15T08:20:03;1.00;;;1.00;;
5620;SDS011;2832;50.864;12.186;2022-11-15T08:22:33;1.07;;;1.07;;
5620;SDS011;2832;50.864;12.186;2022-11-15T08:25:01;1.00;;;1.00;;
5620;SDS011;2832;50.864;12.186;2022-11-15T08:27:30;1.00;;;1.00;;
5620;SDS011;2832;50.864;12.186;2022-11-15T08:30:01;1.00;;;1.00;;
5620;SDS011;2832;50.864;12.186;2022-11-15T08:32:31;1.10;;;1.10;;
5620;SDS011;2832;50.864;12.186;2022-11-15T08:34:59;1.00;;;1.00;;
5620;SDS011;2832;50.864;12.186;2022-11-15T08:40:20;1.10;;;1.10;;
5620;SDS011;2832;50.864;12.186;2022-11-15T08:42:47;1.00;;;1.00;;
5620;SDS011;2832;50.864;12.186;2022-11-15T08:45:17;1.10;;;1.10;;
5620;SDS011;2832;50.864;12.186;2022-11-15T08:47:47;1.00;;;1.00;;
5620;SDS011;2832;50.864;12.186;2022-11-15T08:50:15;1.00;;;1.00;;
5620;SDS011;2832;50.864;12.186;2022-11-15T08:52:43;1.10;;;1.10;;
5620;SDS011;2832;50.864;12.186;2022-11-15T08:55:11;1.00;;;1.00;;
5620;SDS011;2832;50.864;12.186;2022-11-15T08:57:39;1.10;;;1.10;;
5620;SDS011;2832;50.864;12.186;2022-11-15T09:00:07;1.00;;;1.00;;
5620;SDS011;2832;50.864;12.186;2022-11-15T09:02:38;1.00;;;1.00;;
5620;SDS011;2832;50.864;12.186;2022-11-15T09:05:08;1.00;;;1.00;;
5620;SDS011;2832;50.864;12.186;2022-11-15T09:07:36;1.10;;;1.10;;
5620;SDS011;2832;50.864;12.186;2022-11-15T09:10:04;1.00;;;1.00;;
5620;SDS011;2832;50.864;12.186;2022-11-15T09:12:33;1.00;;;1.00;;
5620;SDS011;2832;50.864;12.186;2022-11-15T09:15:02;1.00;;;1.00;;
5620;SDS011;2832;50.864;12.186;2022-11-15T09:17:30;1.00;;;1.00;;
5620;SDS011;2832;50.864;12.186;2022-11-15T09:19:58;1.00;;;1.00;;
5620;SDS011;2832;50.864;12.186;2022-11-15T09:22:28;1.00;;;1.00;;
5620;SDS011;2832;50.864;12.186;2022-11-15T09:24:56;1.00;;;1.00;;
5620;SDS011;2832;50.864;12.186;2022-11-15T09:27:26;1.00;;;1.00;;
5620;SDS011;2832;50.864;12.186;2022-11-15T09:29:55;1.00;;;1.00;;
5620;SDS011;2832;50.864;12.186;2022-11-15T09:32:23;1.10;;;1.10;;
5620;SDS011;2832;50.864;12.186;2022-11-15T09:34:56;1.10;;;1.10;;
5620;SDS011;2832;50.864;12.186;2022-11-15T09:37:23;1.00;;;1.00;;
5620;SDS011;2832;50.864;12.186;2022-11-15T09:39:53;1.00;;;1.00;;
5620;SDS011;2832;50.864;12.186;2022-11-15T09:42:27;1.00;;;1.00;;
5620;SDS011;2832;50.864;12.186;2022-11-15T09:45:13;1.10;;;1.10;;
5620;SDS011;2832;50.864;12.186;2022-11-15T09:48:01;1.00;;;1.00;;
5620;SDS011;2832;50.864;12.186;2022-11-15T09:50:47;1.00;;;1.00;;
5620;SDS011;2832;50.864;12.186;2022-11-15T09:53:18;1.00;;;1.00;;
5620;SDS011;2832;50.864;12.186;2022-11-15T09:55:56;1.10;;;1.10;;
5620;SDS011;2832;50.864;12.186;2022-11-15T09:58:32;1.00;;;1.00;;
5620;SDS011;2832;50.864;12.186;2022-11-15T10:01:07;1.00;;;1.00;;
5620;SDS011;2832;50.864;12.186;2022-11-15T10:03:41;1.00;;;1.00;;
5620;SDS011;2832;50.864;12.186;2022-11-15T10:06:14;1.00;;;1.00;;
5620;SDS011;2832;50.864;12.186;2022-11-15T10:08:53;1.00;;;1.00;;
5620;SDS011;2832;50.864;12.186;2022-11-15T10:11:27;1.07;;;1.07;;
5620;SDS011;2832;50.864;12.186;2022-11-15T10:14:02;1.10;;;1.10;;
5620;SDS011;2832;50.864;12.186;2022-11-15T10:19:47;1.00;;;1.00;;
5620;SDS011;2832;50.864;12.186;2022-11-15T10:22:24;1.00;;;1.00;;
5620;SDS011;2832;50.864;12.186;2022-11-15T10:27:43;1.00;;;1.00;;
5620;SDS011;2832;50.864;12.186;2022-11-15T10:30:14;1.03;;;1.03;;
5620;SDS011;2832;50.864;12.186;2022-11-15T10:32:45;1.03;;;1.03;;
5620;SDS011;2832;50.864;12.186;2022-11-15T10:35:19;1.10;;;1.10;;
5620;SDS011;2832;50.864;12.186;2022-11-15T10:38:05;1.00;;;1.00;;
5620;SDS011;2832;50.864;12.186;2022-11-15T10:40:34;1.00;;;1.00;;
5620;SDS011;2832;50.864;12.186;2022-11-15T10:43:14;1.00;;;1.00;;
5620;SDS011;2832;50.864;12.186;2022-11-15T10:45:45;1.00;;;1.00;;
5620;SDS011;2832;50.864;12.186;2022-11-15T10:48:22;1.00;;;1.00;;
5620;SDS011;2832;50.864;12.186;2022-11-15T10:50:52;1.10;;;1.10;;
5620;SDS011;2832;50.864;12.186;2022-11-15T10:53:31;1.00;;;1.00;;
5620;SDS011;2832;50.864;12.186;2022-11-15T10:56:04;1.00;;;1.00;;
5620;SDS011;2832;50.864;12.186;2022-11-15T10:58:37;1.00;;;1.00;;
5620;SDS011;2832;50.864;12.186;2022-11-15T11:03:58;1.00;;;1.00;;
5620;SDS011;2832;50.864;12.186;2022-11-15T11:06:28;1.00;;;1.00;;
5620;SDS011;2832;50.864;12.186;2022-11-15T11:08:58;1.00;;;1.00;;
5620;SDS011;2832;50.864;12.186;2022-11-15T11:11:43;1.00;;;1.00;;
5620;SDS011;2832;50.864;12.186;2022-11-15T11:14:17;1.07;;;1.07;;
5620;SDS011;2832;50.864;12.186;2022-11-15T11:16:50;1.00;;;1.00;;
5620;SDS011;2832;50.864;12.186;2022-11-15T11:19:31;1.10;;;1.10;;
5620;SDS011;2832;50.864;12.186;2022-11-15T11:22:10;1.10;;;1.10;;
5620;SDS011;2832;50.864;12.186;2022-11-15T11:27:56;1.10;;;1.10;;
5620;SDS011;2832;50.864;12.186;2022-11-15T11:30:41;1.00;;;1.00;;
5620;SDS011;2832;50.864;12.186;2022-11-15T11:33:16;1.10;;;1.10;;
5620;SDS011;2832;50.864;12.186;2022-11-15T11:35:54;0.90;;;0.90;;
5620;SDS011;2832;50.864;12.186;2022-11-15T11:38:38;1.00;;;1.00;;
5620;SDS011;2832;50.864;12.186;2022-11-15T11:41:17;1.10;;;1.10;;
5620;SDS011;2832;50.864;12.186;2022-11-15T11:44:12;1.00;;;1.00;;
5620;SDS011;2832;50.864;12.186;2022-11-15T11:46:55;1.00;;;1.00;;
5620;SDS011;2832;50.864;12.186;2022-11-15T11:49:28;1.10;;;1.10;;
5620;SDS011;2832;50.864;12.186;2022-11-15T11:52:03;1.10;;;1.10;;
5620;SDS011;2832;50.864;12.186;2022-11-15T11:54:38;1.00;;;1.00;;
5620;SDS011;2832;50.864;12.186;2022-11-15T11:57:13;1.00;;;1.00;;
5620;SDS011;2832;50.864;12.186;2022-11-15T11:59:52;1.00;;;1.00;;
5620;SDS011;2832;50.864;12.186;2022-11-15T12:02:27;1.10;;;1.10;;
5620;SDS011;2832;50.864;12.186;2022-11-15T12:05:03;0.20;;;0.20;;
5620;SDS011;2832;50.864;12.186;2022-11-15T12:07:37;0.20;;;0.20;;
5620;SDS011;2832;50.864;12.186;2022-11-15T12:10:15;0.20;;;0.20;;
5620;SDS011;2832;50.864;12.186;2022-11-15T12:12:50;0.30;;;0.30;;
5620;SDS011;2832;50.864;12.186;2022-11-15T12:15:23;0.20;;;0.20;;
5620;SDS011;2832;50.864;12.186;2022-11-15T12:17:56;0.20;;;0.20;;
5620;SDS011;2832;50.864;12.186;2022-11-15T12:20:36;1.10;;;1.10;;
5620;SDS011;2832;50.864;12.186;2022-11-15T12:23:17;1.10;;;1.10;;
5620;SDS011;2832;50.864;12.186;2022-11-15T12:25:54;1.00;;;1.00;;
5620;SDS011;2832;50.864;12.186;2022-11-15T12:28:29;1.00;;;1.00;;
5620;SDS011;2832;50.864;12.186;2022-11-15T12:31:05;1.00;;;1.00;;
5620;SDS011;2832;50.864;12.186;2022-11-15T12:33:43;1.10;;;1.10;;
5620;SDS011;2832;50.864;12.186;2022-11-15T12:36:12;1.00;;;1.00;;
5620;SDS011;2832;50.864;12.186;2022-11-15T12:39:05;1.00;;;1.00;;
5620;SDS011;2832;50.864;12.186;2022-11-15T12:41:35;1.00;;;1.00;;
5620;SDS011;2832;50.864;12.186;2022-11-15T12:44:05;0.90;;;0.90;;
5620;SDS011;2832;50.864;12.186;2022-11-15T12:49:43;1.00;;;1.00;;
5620;SDS011;2832;50.864;12.186;2022-11-15T12:52:12;1.10;;;1.10;;
5620;SDS011;2832;50.864;12.186;2022-11-15T12:54:51;1.00;;;1.00;;
5620;SDS011;2832;50.864;12.186;2022-11-15T12:57:31;1.00;;;1.00;;
5620;SDS011;2832;50.864;12.186;2022-11-15T13:00:05;1.00;;;1.00;;
5620;SDS011;2832;50.864;12.186;2022-11-15T13:02:55;1.00;;;1.00;;
5620;SDS011;2832;50.864;12.186;2022-11-15T13:05:56;1.00;;;1.00;;
5620;SDS011;2832;50.864;12.186;2022-11-15T13:08:40;1.10;;;1.10;;
5620;SDS011;2832;50.864;12.186;2022-11-15T13:14:38;1.00;;;1.00;;
5620;SDS011;2832;50.864;12.186;2022-11-15T13:20:17;1.00;;;1.00;;
5620;SDS011;2832;50.864;12.186;2022-11-15T13:22:53;1.03;;;1.03;;
5620;SDS011;2832;50.864;12.186;2022-11-15T13:28:37;1.07;;;1.07;;
5620;SDS011;2832;50.864;12.186;2022-11-15T13:31:26;1.10;;;1.10;;
5620;SDS011;2832;50.864;12.186;2022-11-15T13:33:57;1.00;;;1.00;;
5620;SDS011;2832;50.864;12.186;2022-11-15T13:36:28;1.00;;;1.00;;
5620;SDS011;2832;50.864;12.186;2022-11-15T13:39:04;1.00;;;1.00;;
5620;SDS011;2832;50.864;12.186;2022-11-15T13:41:33;1.00;;;1.00;;
5620;SDS011;2832;50.864;12.186;2022-11-15T13:44:02;1.00;;;1.00;;
5620;SDS011;2832;50.864;12.186;2022-11-15T13:46:31;1.00;;;1.00;;
5620;SDS011;2832;50.864;12.186;2022-11-15T13:49:00;1.00;;;1.00;;
5620;SDS011;2832;50.864;12.186;2022-11-15T13:51:35;1.00;;;1.00;;
5620;SDS011;2832;50.864;12.186;2022-11-15T13:54:12;1.00;;;1.00;;
5620;SDS011;2832;50.864;12.186;2022-11-15T13:56:46;1.00;;;1.00;;
5620;SDS011;2832;50.864;12.186;2022-11-15T13:59:18;1.00;;;1.00;;
5620;SDS011;2832;50.864;12.186;2022-11-15T14:01:52;1.00;;;1.00;;
5620;SDS011;2832;50.864;12.186;2022-11-15T14:04:21;1.00;;;1.00;;
5620;SDS011;2832;50.864;12.186;2022-11-15T14:06:51;1.07;;;1.07;;
5620;SDS011;2832;50.864;12.186;2022-11-15T14:12:31;1.00;;;1.00;;
5620;SDS011;2832;50.864;12.186;2022-11-15T14:15:01;1.00;;;1.00;;
5620;SDS011;2832;50.864;12.186;2022-11-15T14:17:45;1.00;;;1.00;;
5620;SDS011;2832;50.864;12.186;2022-11-15T14:20:20;1.00;;;1.00;;
5620;SDS011;2832;50.864;12.186;2022-11-15T14:22:54;1.07;;;1.07;;
5620;SDS011;2832;50.864;12.186;2022-11-15T14:25:24;1.00;;;1.00;;
5620;SDS011;2832;50.864;12.186;2022-11-15T14:28:13;1.00;;;1.00;;
5620;SDS011;2832;50.864;12.186;2022-11-15T14:30:45;1.00;;;1.00;;
5620;SDS011;2832;50.864;12.186;2022-11-15T14:33:24;1.10;;;1.10;;
5620;SDS011;2832;50.864;12.186;2022-11-15T14:35:55;1.00;;;1.00;;
5620;SDS011;2832;50.864;12.186;2022-11-15T14:38:25;1.00;;;1.00;;
5620;SDS011;2832;50.864;12.186;2022-11-15T14:40:55;1.00;;;1.00;;
5620;SDS011;2832;50.864;12.186;2022-11-15T14:43:24;1.00;;;1.00;;
5620;SDS011;2832;50.864;12.186;2022-11-15T14:45:52;1.00;;;1.00;;
5620;SDS011;2832;50.864;12.186;2022-11-15T14:48:21;1.10;;;1.10;;
5620;SDS011;2832;50.864;12.186;2022-11-15T14:50:49;1.10;;;1.10;;
5620;SDS011;2832;50.864;12.186;2022-11-15T14:53:17;1.00;;;1.00;;
5620;SDS011;2832;50.864;12.186;2022-11-15T14:55:46;1.10;;;1.10;;
5620;SDS011;2832;50.864;12.186;2022-11-15T14:58:16;1.10;;;1.10;;
5620;SDS011;2832;50.864;12.186;2022-11-15T15:00:43;1.00;;;1.00;;
5620;SDS011;2832;50.864;12.186;2022-11-15T15:03:12;1.00;;;1.00;;
5620;SDS011;2832;50.864;12.186;2022-11-15T15:05:40;1.00;;;1.00;;
5620;SDS011;2832;50.864;12.186;2022-11-15T15:08:09;1.00;;;1.00;;
5620;SDS011;2832;50.864;12.186;2022-11-15T15:10:38;1.00;;;1.00;;
5620;SDS011;2832;50.864;12.186;2022-11-15T15:13:10;1.00;;;1.00;;
5620;SDS011;2832;50.864;12.186;2022-11-15T15:15:45;1.00;;;1.00;;
5620;SDS011;2832;50.864;12.186;2022-11-15T15:18:14;0.97;;;0.97;;
5620;SDS011;2832;50.864;12.186;2022-11-15T15:20:42;1.00;;;1.00;;
5620;SDS011;2832;50.864;12.186;2022-11-15T15:23:15;1.00;;;1.00;;
5620;SDS011;2832;50.864;12.186;2022-11-15T15:25:44;1.00;;;1.00;;
5620;SDS011;2832;50.864;12.186;2022-11-15T15:28:18;1.00;;;1.00;;
5620;SDS011;2832;50.864;12.186;2022-11-15T15:30:46;1.00;;;1.00;;
5620;SDS011;2832;50.864;12.186;2022-11-15T15:33:14;1.00;;;1.00;;
5620;SDS011;2832;50.864;12.186;2022-11-15T15:35:45;1.00;;;1.00;;
5620;SDS011;2832;50.864;12.186;2022-11-15T15:38:13;1.00;;;1.00;;
5620;SDS011;2832;50.864;12.186;2022-11-15T15:40:41;1.00;;;1.00;;
5620;SDS011;2832;50.864;12.186;2022-11-15T15:43:08;1.00;;;1.00;;
5620;SDS011;2832;50.864;12.186;2022-11-15T15:45:38;1.10;;;1.10;;
5620;SDS011;2832;50.864;12.186;2022-11-15T15:48:10;1.00;;;1.00;;
5620;SDS011;2832;50.864;12.186;2022-11-15T15:50:40;0.90;;;0.90;;
5620;SDS011;2832;50.864;12.186;2022-11-15T15:53:09;1.00;;;1.00;;
5620;SDS011;2832;50.864;12.186;2022-11-15T15:55:37;1.00;;;1.00;;
5620;SDS011;2832;50.864;12.186;2022-11-15T15:58:05;1.10;;;1.10;;
5620;SDS011;2832;50.864;12.186;2022-11-15T16:00:33;1.00;;;1.00;;
5620;SDS011;2832;50.864;12.186;2022-11-15T16:03:03;1.00;;;1.00;;
5620;SDS011;2832;50.864;12.186;2022-11-15T16:05:30;1.00;;;1.00;;